sensor_id;sensor_type;location;lat;lon;timestamp;P1;durP1;ratioP1;P2;durP2;ratioP2
7831;SDS011;3961;42.058;25.586;2022-09-25T00:00:22;7.60;;;5.17;;
7831;SDS011;3961;42.058;25.586;2022-09-25T00:02:47;6.83;;;4.87;;
7831;SDS011;3961;42.058;25.586;2022-09-25T00:05:13;11.37;;;5.93;;
7831;SDS011;3961;42.058;25.586;2022-09-25T00:07:39;10.67;;;5.23;;
7831;SDS011;3961;42.058;25.586;2022-09-25T00:10:04;7.13;;;4.73;;
7831;SDS011;3961;42.058;25.586;2022-09-25T00:12:30;7.60;;;4.30;;
7831;SDS011;3961;42.058;25.586;2022-09-25T00:14:55;8.40;;;4.23;;
7831;SDS011;3961;42.058;25.586;2022-09-25T00:17:22;5.00;;;4.10;;
7831;SDS011;3961;42.058;25.586;2022-09-25T00:19:47;7.30;;;4.20;;
7831;SDS011;3961;42.058;25.586;2022-09-25T00:22:16;8.57;;;4.53;;
7831;SDS011;3961;42.058;25.586;2022-09-25T00:24:43;10.57;;;4.70;;
7831;SDS011;3961;42.058;25.586;2022-09-25T00:27:08;5.43;;;4.33;;
7831;SDS011;3961;42.058;25.586;2022-09-25T00:29:35;8.00;;;4.33;;
7831;SDS011;3961;42.058;25.586;2022-09-25T00:32:02;5.83;;;4.37;;
7831;SDS011;3961;42.058;25.586;2022-09-25T00:34:29;5.47;;;4.60;;
7831;SDS011;3961;42.058;25.586;2022-09-25T00:36:54;9.63;;;5.20;;
7831;SDS011;3961;42.058;25.586;2022-09-25T00:39:20;6.77;;;4.70;;
7831;SDS011;3961;42.058;25.586;2022-09-25T00:41:46;8.50;;;4.70;;
7831;SDS011;3961;42.058;25.586;2022-09-25T00:47:08;9.27;;;5.30;;
7831;SDS011;3961;42.058;25.586;2022-09-25T00:49:36;7.70;;;4.50;;
7831;SDS011;3961;42.058;25.586;2022-09-25T00:52:02;5.87;;;4.77;;
7831;SDS011;3961;42.058;25.586;2022-09-25T00:54:32;5.07;;;4.30;;
7831;SDS011;3961;42.058;25.586;2022-09-25T00:57:01;8.30;;;4.40;;
7831;SDS011;3961;42.058;25.586;2022-09-25T00:59:37;6.23;;;4.10;;
7831;SDS011;3961;42.058;25.586;2022-09-25T01:02:08;7.47;;;5.00;;
7831;SDS011;3961;42.058;25.586;2022-09-25T01:04:38;11.87;;;4.67;;
7831;SDS011;3961;42.058;25.586;2022-09-25T01:07:06;5.83;;;5.07;;
7831;SDS011;3961;42.058;25.586;2022-09-25T01:09:33;5.30;;;4.53;;
7831;SDS011;3961;42.058;25.586;2022-09-25T01:11:59;6.33;;;5.17;;
7831;SDS011;3961;42.058;25.586;2022-09-25T01:14:25;7.77;;;4.70;;
7831;SDS011;3961;42.058;25.586;2022-09-25T01:16:57;5.50;;;4.33;;
7831;SDS011;3961;42.058;25.586;2022-09-25T01:19:52;6.33;;;4.40;;
7831;SDS011;3961;42.058;25.586;2022-09-25T01:30:24;7.30;;;4.47;;
7831;SDS011;3961;42.058;25.586;2022-09-25T01:33:23;7.00;;;4.40;;
7831;SDS011;3961;42.058;25.586;2022-09-25T01:35:46;6.50;;;4.27;;
7831;SDS011;3961;42.058;25.586;2022-09-25T01:43:41;6.07;;;4.73;;
7831;SDS011;3961;42.058;25.586;2022-09-25T01:46:19;5.70;;;4.40;;
7831;SDS011;3961;42.058;25.586;2022-09-25T01:48:48;5.40;;;4.50;;
7831;SDS011;3961;42.058;25.586;2022-09-25T01:51:29;5.87;;;4.47;;
7831;SDS011;3961;42.058;25.586;2022-09-25T01:54:07;7.13;;;4.73;;
7831;SDS011;3961;42.058;25.586;2022-09-25T01:57:01;8.10;;;4.50;;
7831;SDS011;3961;42.058;25.586;2022-09-25T02:02:19;7.30;;;4.97;;
7831;SDS011;3961;42.058;25.586;2022-09-25T02:04:53;5.67;;;5.07;;
7831;SDS011;3961;42.058;25.586;2022-09-25T02:07:24;7.03;;;5.13;;
7831;SDS011;3961;42.058;25.586;2022-09-25T02:09:53;12.87;;;5.53;;
7831;SDS011;3961;42.058;25.586;2022-09-25T02:12:24;6.87;;;5.07;;
7831;SDS011;3961;42.058;25.586;2022-09-25T02:15:07;7.43;;;4.90;;
7831;SDS011;3961;42.058;25.586;2022-09-25T02:17:40;6.97;;;4.80;;
7831;SDS011;3961;42.058;25.586;2022-09-25T02:20:35;7.87;;;4.67;;
7831;SDS011;3961;42.058;25.586;2022-09-25T02:25:39;7.10;;;4.30;;
7831;SDS011;3961;42.058;25.586;2022-09-25T02:28:27;8.53;;;4.80;;
7831;SDS011;3961;42.058;25.586;2022-09-25T02:30:53;6.37;;;5.20;;
7831;SDS011;3961;42.058;25.586;2022-09-25T02:33:21;5.73;;;4.57;;
7831;SDS011;3961;42.058;25.586;2022-09-25T02:35:48;9.50;;;5.00;;
7831;SDS011;3961;42.058;25.586;2022-09-25T02:38:14;6.43;;;4.70;;
7831;SDS011;3961;42.058;25.586;2022-09-25T02:40:42;4.87;;;4.20;;
7831;SDS011;3961;42.058;25.586;2022-09-25T02:52:18;6.83;;;5.57;;
7831;SDS011;3961;42.058;25.586;2022-09-25T03:00:14;7.30;;;4.60;;
7831;SDS011;3961;42.058;25.586;2022-09-25T03:02:40;7.93;;;5.50;;
7831;SDS011;3961;42.058;25.586;2022-09-25T03:05:09;8.90;;;4.60;;
7831;SDS011;3961;42.058;25.586;2022-09-25T03:07:37;12.70;;;5.37;;
7831;SDS011;3961;42.058;25.586;2022-09-25T03:10:22;10.43;;;6.03;;
7831;SDS011;3961;42.058;25.586;2022-09-25T03:12:49;8.57;;;6.00;;
7831;SDS011;3961;42.058;25.586;2022-09-25T03:15:14;17.07;;;6.00;;
7831;SDS011;3961;42.058;25.586;2022-09-25T03:17:41;7.83;;;5.60;;
7831;SDS011;3961;42.058;25.586;2022-09-25T03:20:07;8.47;;;5.10;;
7831;SDS011;3961;42.058;25.586;2022-09-25T03:22:34;6.10;;;4.97;;
7831;SDS011;3961;42.058;25.586;2022-09-25T03:25:00;5.20;;;4.47;;
7831;SDS011;3961;42.058;25.586;2022-09-25T03:27:26;9.17;;;5.87;;
7831;SDS011;3961;42.058;25.586;2022-09-25T03:29:54;6.10;;;5.10;;
7831;SDS011;3961;42.058;25.586;2022-09-25T03:32:20;20.77;;;6.00;;
7831;SDS011;3961;42.058;25.586;2022-09-25T03:34:46;14.57;;;6.17;;
7831;SDS011;3961;42.058;25.586;2022-09-25T03:37:11;7.17;;;4.83;;
7831;SDS011;3961;42.058;25.586;2022-09-25T03:39:37;10.40;;;5.20;;
7831;SDS011;3961;42.058;25.586;2022-09-25T03:42:03;6.90;;;5.00;;
7831;SDS011;3961;42.058;25.586;2022-09-25T03:44:29;9.27;;;5.57;;
7831;SDS011;3961;42.058;25.586;2022-09-25T03:46:54;7.10;;;5.37;;
7831;SDS011;3961;42.058;25.586;2022-09-25T03:49:19;8.53;;;6.37;;
7831;SDS011;3961;42.058;25.586;2022-09-25T03:51:45;15.03;;;7.30;;
7831;SDS011;3961;42.058;25.586;2022-09-25T03:54:11;27.80;;;10.20;;
7831;SDS011;3961;42.058;25.586;2022-09-25T03:56:36;64.40;;;21.67;;
7831;SDS011;3961;42.058;25.586;2022-09-25T03:59:02;45.60;;;18.73;;
7831;SDS011;3961;42.058;25.586;2022-09-25T04:01:28;29.97;;;13.33;;
7831;SDS011;3961;42.058;25.586;2022-09-25T04:03:54;39.97;;;15.30;;
7831;SDS011;3961;42.058;25.586;2022-09-25T04:06:21;28.83;;;13.03;;
7831;SDS011;3961;42.058;25.586;2022-09-25T04:08:48;33.97;;;14.33;;
7831;SDS011;3961;42.058;25.586;2022-09-25T04:11:15;29.10;;;12.87;;
7831;SDS011;3961;42.058;25.586;2022-09-25T04:13:42;18.43;;;9.40;;
7831;SDS011;3961;42.058;25.586;2022-09-25T04:16:10;22.53;;;9.80;;
7831;SDS011;3961;42.058;25.586;2022-09-25T04:18:36;23.87;;;10.83;;
7831;SDS011;3961;42.058;25.586;2022-09-25T04:21:04;21.83;;;11.30;;
7831;SDS011;3961;42.058;25.586;2022-09-25T04:23:31;20.90;;;10.17;;
7831;SDS011;3961;42.058;25.586;2022-09-25T04:25:57;29.13;;;13.20;;
7831;SDS011;3961;42.058;25.586;2022-09-25T04:28:23;25.67;;;13.10;;
7831;SDS011;3961;42.058;25.586;2022-09-25T04:30:49;24.23;;;11.97;;
7831;SDS011;3961;42.058;25.586;2022-09-25T04:33:16;24.77;;;12.93;;
7831;SDS011;3961;42.058;25.586;2022-09-25T04:36:01;11.83;;;5.70;;
7831;SDS011;3961;42.058;25.586;2022-09-25T04:38:27;11.10;;;6.17;;
7831;SDS011;3961;42.058;25.586;2022-09-25T04:40:57;7.80;;;6.50;;
7831;SDS011;3961;42.058;25.586;2022-09-25T04:43:24;10.57;;;6.57;;
7831;SDS011;3961;42.058;25.586;2022-09-25T04:45:51;9.13;;;7.00;;
7831;SDS011;3961;42.058;25.586;2022-09-25T04:48:17;8.63;;;6.47;;
7831;SDS011;3961;42.058;25.586;2022-09-25T04:50:48;7.03;;;5.67;;
7831;SDS011;3961;42.058;25.586;2022-09-25T04:53:15;9.70;;;5.57;;
7831;SDS011;3961;42.058;25.586;2022-09-25T04:55:40;9.43;;;6.27;;
7831;SDS011;3961;42.058;25.586;2022-09-25T04:58:06;9.17;;;6.40;;
7831;SDS011;3961;42.058;25.586;2022-09-25T05:00:34;8.47;;;5.77;;
7831;SDS011;3961;42.058;25.586;2022-09-25T05:03:01;9.03;;;6.37;;
7831;SDS011;3961;42.058;25.586;2022-09-25T05:05:27;12.57;;;7.33;;
7831;SDS011;3961;42.058;25.586;2022-09-25T05:07:58;17.63;;;9.50;;
7831;SDS011;3961;42.058;25.586;2022-09-25T05:10:26;18.87;;;8.57;;
7831;SDS011;3961;42.058;25.586;2022-09-25T05:12:54;24.10;;;10.10;;
7831;SDS011;3961;42.058;25.586;2022-09-25T05:15:24;8.07;;;5.90;;
7831;SDS011;3961;42.058;25.586;2022-09-25T05:17:57;24.40;;;11.93;;
7831;SDS011;3961;42.058;25.586;2022-09-25T05:20:26;29.20;;;13.10;;
7831;SDS011;3961;42.058;25.586;2022-09-25T05:22:55;16.30;;;6.90;;
7831;SDS011;3961;42.058;25.586;2022-09-25T05:25:22;12.40;;;9.03;;
7831;SDS011;3961;42.058;25.586;2022-09-25T05:27:49;17.47;;;10.00;;
7831;SDS011;3961;42.058;25.586;2022-09-25T05:30:16;18.33;;;11.63;;
7831;SDS011;3961;42.058;25.586;2022-09-25T05:32:50;13.50;;;8.83;;
7831;SDS011;3961;42.058;25.586;2022-09-25T05:35:17;15.90;;;10.93;;
7831;SDS011;3961;42.058;25.586;2022-09-25T05:37:44;16.37;;;11.33;;
7831;SDS011;3961;42.058;25.586;2022-09-25T05:40:10;13.20;;;7.80;;
7831;SDS011;3961;42.058;25.586;2022-09-25T05:42:36;14.70;;;8.33;;
7831;SDS011;3961;42.058;25.586;2022-09-25T05:45:02;16.07;;;10.27;;
7831;SDS011;3961;42.058;25.586;2022-09-25T05:47:28;11.17;;;8.03;;
7831;SDS011;3961;42.058;25.586;2022-09-25T05:49:53;18.73;;;8.47;;
7831;SDS011;3961;42.058;25.586;2022-09-25T05:52:19;11.20;;;7.70;;
7831;SDS011;3961;42.058;25.586;2022-09-25T05:54:44;10.40;;;6.57;;
7831;SDS011;3961;42.058;25.586;2022-09-25T05:57:10;11.47;;;6.33;;
7831;SDS011;3961;42.058;25.586;2022-09-25T05:59:36;13.63;;;7.10;;
7831;SDS011;3961;42.058;25.586;2022-09-25T06:02:01;9.83;;;6.23;;
7831;SDS011;3961;42.058;25.586;2022-09-25T06:04:27;10.43;;;6.37;;
7831;SDS011;3961;42.058;25.586;2022-09-25T06:06:52;10.10;;;6.37;;
7831;SDS011;3961;42.058;25.586;2022-09-25T06:09:18;16.77;;;7.77;;
7831;SDS011;3961;42.058;25.586;2022-09-25T06:11:44;10.50;;;7.10;;
7831;SDS011;3961;42.058;25.586;2022-09-25T06:14:14;12.53;;;6.83;;
7831;SDS011;3961;42.058;25.586;2022-09-25T06:16:40;10.67;;;6.67;;
7831;SDS011;3961;42.058;25.586;2022-09-25T06:19:06;14.37;;;6.30;;
7831;SDS011;3961;42.058;25.586;2022-09-25T06:21:32;8.50;;;6.07;;
7831;SDS011;3961;42.058;25.586;2022-09-25T06:23:58;10.40;;;6.63;;
7831;SDS011;3961;42.058;25.586;2022-09-25T06:26:24;8.93;;;5.70;;
7831;SDS011;3961;42.058;25.586;2022-09-25T06:28:50;10.03;;;6.53;;
7831;SDS011;3961;42.058;25.586;2022-09-25T06:31:15;9.47;;;6.83;;
7831;SDS011;3961;42.058;25.586;2022-09-25T06:33:41;13.40;;;6.83;;
7831;SDS011;3961;42.058;25.586;2022-09-25T06:36:08;10.07;;;5.50;;
7831;SDS011;3961;42.058;25.586;2022-09-25T06:38:33;8.20;;;5.43;;
7831;SDS011;3961;42.058;25.586;2022-09-25T06:40:59;5.17;;;4.50;;
7831;SDS011;3961;42.058;25.586;2022-09-25T06:43:24;6.53;;;4.30;;
7831;SDS011;3961;42.058;25.586;2022-09-25T06:45:50;6.53;;;4.57;;
7831;SDS011;3961;42.058;25.586;2022-09-25T06:48:16;9.17;;;5.23;;
7831;SDS011;3961;42.058;25.586;2022-09-25T06:50:51;6.17;;;4.83;;
7831;SDS011;3961;42.058;25.586;2022-09-25T06:53:19;8.23;;;5.20;;
7831;SDS011;3961;42.058;25.586;2022-09-25T06:55:46;11.40;;;4.87;;
7831;SDS011;3961;42.058;25.586;2022-09-25T06:58:18;8.67;;;5.50;;
7831;SDS011;3961;42.058;25.586;2022-09-25T07:00:45;9.23;;;6.10;;
7831;SDS011;3961;42.058;25.586;2022-09-25T07:03:12;6.77;;;5.50;;
7831;SDS011;3961;42.058;25.586;2022-09-25T07:05:58;16.37;;;5.80;;
7831;SDS011;3961;42.058;25.586;2022-09-25T07:08:24;7.20;;;4.87;;
7831;SDS011;3961;42.058;25.586;2022-09-25T07:10:51;8.57;;;4.43;;
7831;SDS011;3961;42.058;25.586;2022-09-25T07:13:18;9.23;;;5.23;;
7831;SDS011;3961;42.058;25.586;2022-09-25T07:15:51;8.73;;;6.10;;
7831;SDS011;3961;42.058;25.586;2022-09-25T07:18:21;11.20;;;5.10;;
7831;SDS011;3961;42.058;25.586;2022-09-25T07:20:48;8.70;;;4.60;;
7831;SDS011;3961;42.058;25.586;2022-09-25T07:23:15;9.60;;;5.30;;
7831;SDS011;3961;42.058;25.586;2022-09-25T07:25:45;7.27;;;5.00;;
7831;SDS011;3961;42.058;25.586;2022-09-25T07:28:12;6.60;;;4.63;;
7831;SDS011;3961;42.058;25.586;2022-09-25T07:30:39;9.10;;;5.23;;
7831;SDS011;3961;42.058;25.586;2022-09-25T07:33:05;7.40;;;4.80;;
7831;SDS011;3961;42.058;25.586;2022-09-25T07:35:32;6.07;;;4.60;;
7831;SDS011;3961;42.058;25.586;2022-09-25T07:37:58;12.17;;;4.73;;
7831;SDS011;3961;42.058;25.586;2022-09-25T07:40:24;7.27;;;4.87;;
7831;SDS011;3961;42.058;25.586;2022-09-25T07:42:59;7.00;;;4.20;;
7831;SDS011;3961;42.058;25.586;2022-09-25T07:45:28;6.30;;;4.43;;
7831;SDS011;3961;42.058;25.586;2022-09-25T07:47:58;9.27;;;4.90;;
7831;SDS011;3961;42.058;25.586;2022-09-25T07:50:30;4.90;;;4.30;;
7831;SDS011;3961;42.058;25.586;2022-09-25T07:52:57;7.30;;;4.30;;
7831;SDS011;3961;42.058;25.586;2022-09-25T07:55:23;5.83;;;4.70;;
7831;SDS011;3961;42.058;25.586;2022-09-25T07:57:49;9.43;;;4.50;;
7831;SDS011;3961;42.058;25.586;2022-09-25T08:00:16;9.47;;;4.60;;
7831;SDS011;3961;42.058;25.586;2022-09-25T08:02:42;7.40;;;4.50;;
7831;SDS011;3961;42.058;25.586;2022-09-25T08:05:08;6.80;;;4.27;;
7831;SDS011;3961;42.058;25.586;2022-09-25T08:07:35;8.23;;;4.90;;
7831;SDS011;3961;42.058;25.586;2022-09-25T08:10:01;6.23;;;4.67;;
7831;SDS011;3961;42.058;25.586;2022-09-25T08:12:27;7.57;;;4.50;;
7831;SDS011;3961;42.058;25.586;2022-09-25T08:14:53;8.83;;;4.50;;
7831;SDS011;3961;42.058;25.586;2022-09-25T08:17:18;8.77;;;4.70;;
7831;SDS011;3961;42.058;25.586;2022-09-25T08:19:44;11.97;;;5.00;;
7831;SDS011;3961;42.058;25.586;2022-09-25T08:22:10;9.13;;;4.80;;
7831;SDS011;3961;42.058;25.586;2022-09-25T08:24:36;9.33;;;4.40;;
7831;SDS011;3961;42.058;25.586;2022-09-25T08:27:03;7.13;;;4.43;;
7831;SDS011;3961;42.058;25.586;2022-09-25T08:29:29;5.90;;;4.17;;
7831;SDS011;3961;42.058;25.586;2022-09-25T08:31:55;8.77;;;4.77;;
7831;SDS011;3961;42.058;25.586;2022-09-25T08:34:21;9.30;;;4.30;;
7831;SDS011;3961;42.058;25.586;2022-09-25T08:36:49;5.93;;;3.77;;
7831;SDS011;3961;42.058;25.586;2022-09-25T08:39:15;10.70;;;4.40;;
7831;SDS011;3961;42.058;25.586;2022-09-25T08:41:46;9.40;;;4.10;;
7831;SDS011;3961;42.058;25.586;2022-09-25T08:44:21;5.57;;;4.40;;
7831;SDS011;3961;42.058;25.586;2022-09-25T08:49:47;5.57;;;3.83;;
7831;SDS011;3961;42.058;25.586;2022-09-25T08:52:23;8.17;;;4.13;;
7831;SDS011;3961;42.058;25.586;2022-09-25T08:54:49;4.80;;;4.03;;
7831;SDS011;3961;42.058;25.586;2022-09-25T08:57:17;5.77;;;4.47;;
7831;SDS011;3961;42.058;25.586;2022-09-25T08:59:52;12.17;;;6.70;;
7831;SDS011;3961;42.058;25.586;2022-09-25T09:02:27;16.00;;;5.13;;
7831;SDS011;3961;42.058;25.586;2022-09-25T09:08:08;6.93;;;3.80;;
7831;SDS011;3961;42.058;25.586;2022-09-25T09:10:45;7.93;;;3.83;;
7831;SDS011;3961;42.058;25.586;2022-09-25T09:16:18;8.73;;;4.00;;
7831;SDS011;3961;42.058;25.586;2022-09-25T09:18:52;8.00;;;4.00;;
7831;SDS011;3961;42.058;25.586;2022-09-25T09:38:39;29.60;;;7.20;;
7831;SDS011;3961;42.058;25.586;2022-09-25T09:41:30;22.70;;;6.40;;
7831;SDS011;3961;42.058;25.586;2022-09-25T09:44:56;15.17;;;4.77;;
7831;SDS011;3961;42.058;25.586;2022-09-25T09:50:57;15.27;;;4.00;;
7831;SDS011;3961;42.058;25.586;2022-09-25T09:53:38;6.27;;;3.70;;
7831;SDS011;3961;42.058;25.586;2022-09-25T09:56:18;5.67;;;3.70;;
7831;SDS011;3961;42.058;25.586;2022-09-25T09:59:22;9.27;;;3.43;;
7831;SDS011;3961;42.058;25.586;2022-09-25T10:01:44;6.13;;;3.33;;
7831;SDS011;3961;42.058;25.586;2022-09-25T10:04:16;4.87;;;3.50;;
7831;SDS011;3961;42.058;25.586;2022-09-25T10:06:47;6.43;;;3.30;;
7831;SDS011;3961;42.058;25.586;2022-09-25T10:09:48;4.20;;;3.00;;
7831;SDS011;3961;42.058;25.586;2022-09-25T10:12:18;3.67;;;3.20;;
7831;SDS011;3961;42.058;25.586;2022-09-25T10:15:04;4.63;;;2.83;;
7831;SDS011;3961;42.058;25.586;2022-09-25T10:17:42;4.77;;;2.90;;
7831;SDS011;3961;42.058;25.586;2022-09-25T10:20:19;6.33;;;2.90;;
7831;SDS011;3961;42.058;25.586;2022-09-25T10:22:46;5.27;;;2.87;;
7831;SDS011;3961;42.058;25.586;2022-09-25T10:25:33;9.20;;;2.60;;
7831;SDS011;3961;42.058;25.586;2022-09-25T10:31:04;8.33;;;2.90;;
7831;SDS011;3961;42.058;25.586;2022-09-25T10:33:31;4.43;;;3.00;;
7831;SDS011;3961;42.058;25.586;2022-09-25T10:35:57;3.73;;;2.90;;
7831;SDS011;3961;42.058;25.586;2022-09-25T10:38:31;4.13;;;2.97;;
7831;SDS011;3961;42.058;25.586;2022-09-25T10:41:17;5.13;;;2.80;;
7831;SDS011;3961;42.058;25.586;2022-09-25T10:49:14;3.77;;;2.80;;
7831;SDS011;3961;42.058;25.586;2022-09-25T10:52:20;3.23;;;2.90;;
7831;SDS011;3961;42.058;25.586;2022-09-25T10:54:46;4.07;;;2.73;;
7831;SDS011;3961;42.058;25.586;2022-09-25T10:57:14;4.67;;;2.50;;
7831;SDS011;3961;42.058;25.586;2022-09-25T11:00:03;3.63;;;2.80;;
7831;SDS011;3961;42.058;25.586;2022-09-25T11:02:43;3.50;;;2.40;;
7831;SDS011;3961;42.058;25.586;2022-09-25T11:05:20;3.03;;;2.30;;
7831;SDS011;3961;42.058;25.586;2022-09-25T11:08:01;4.70;;;2.80;;
7831;SDS011;3961;42.058;25.586;2022-09-25T11:10:32;2.97;;;2.40;;
7831;SDS011;3961;42.058;25.586;2022-09-25T11:13:02;2.10;;;2.00;;
7831;SDS011;3961;42.058;25.586;2022-09-25T11:15:33;3.13;;;2.67;;
7831;SDS011;3961;42.058;25.586;2022-09-25T11:18:03;4.33;;;2.40;;
7831;SDS011;3961;42.058;25.586;2022-09-25T11:20:30;3.30;;;2.10;;
7831;SDS011;3961;42.058;25.586;2022-09-25T11:26:15;2.37;;;2.07;;
7831;SDS011;3961;42.058;25.586;2022-09-25T11:28:49;2.57;;;2.10;;
7831;SDS011;3961;42.058;25.586;2022-09-25T11:39:47;5.53;;;2.33;;
7831;SDS011;3961;42.058;25.586;2022-09-25T11:42:43;4.47;;;2.00;;
7831;SDS011;3961;42.058;25.586;2022-09-25T11:45:23;3.63;;;2.40;;
7831;SDS011;3961;42.058;25.586;2022-09-25T11:48:03;2.63;;;2.00;;
7831;SDS011;3961;42.058;25.586;2022-09-25T11:51:01;3.67;;;2.70;;
7831;SDS011;3961;42.058;25.586;2022-09-25T11:56:25;2.30;;;2.10;;
7831;SDS011;3961;42.058;25.586;2022-09-25T11:59:21;2.37;;;2.10;;
7831;SDS011;3961;42.058;25.586;2022-09-25T12:08:12;2.37;;;2.03;;
7831;SDS011;3961;42.058;25.586;2022-09-25T12:14:20;2.67;;;1.90;;
7831;SDS011;3961;42.058;25.586;2022-09-25T12:17:06;4.00;;;2.60;;
7831;SDS011;3961;42.058;25.586;2022-09-25T12:25:25;3.03;;;2.10;;
7831;SDS011;3961;42.058;25.586;2022-09-25T12:33:28;2.20;;;1.90;;
7831;SDS011;3961;42.058;25.586;2022-09-25T12:36:09;5.10;;;2.10;;
7831;SDS011;3961;42.058;25.586;2022-09-25T12:38:43;3.47;;;2.47;;
7831;SDS011;3961;42.058;25.586;2022-09-25T12:41:19;3.20;;;2.20;;
7831;SDS011;3961;42.058;25.586;2022-09-25T12:46:42;3.50;;;2.00;;
7831;SDS011;3961;42.058;25.586;2022-09-25T12:49:38;5.90;;;2.20;;
7831;SDS011;3961;42.058;25.586;2022-09-25T12:52:13;2.17;;;1.97;;
7831;SDS011;3961;42.058;25.586;2022-09-25T12:57:30;3.20;;;2.20;;
7831;SDS011;3961;42.058;25.586;2022-09-25T13:00:07;5.30;;;1.93;;
7831;SDS011;3961;42.058;25.586;2022-09-25T13:05:34;2.33;;;1.97;;
7831;SDS011;3961;42.058;25.586;2022-09-25T13:08:07;2.43;;;2.20;;
7831;SDS011;3961;42.058;25.586;2022-09-25T13:10:57;5.93;;;2.50;;
7831;SDS011;3961;42.058;25.586;2022-09-25T13:13:30;4.03;;;1.80;;
7831;SDS011;3961;42.058;25.586;2022-09-25T13:16:01;2.13;;;1.93;;
7831;SDS011;3961;42.058;25.586;2022-09-25T13:18:28;3.03;;;2.00;;
7831;SDS011;3961;42.058;25.586;2022-09-25T13:20:56;3.27;;;2.20;;
7831;SDS011;3961;42.058;25.586;2022-09-25T13:26:08;3.93;;;2.43;;
7831;SDS011;3961;42.058;25.586;2022-09-25T13:28:46;2.53;;;2.30;;
7831;SDS011;3961;42.058;25.586;2022-09-25T13:31:21;2.70;;;1.80;;
7831;SDS011;3961;42.058;25.586;2022-09-25T13:34:12;2.57;;;2.17;;
7831;SDS011;3961;42.058;25.586;2022-09-25T13:42:06;2.40;;;2.10;;
7831;SDS011;3961;42.058;25.586;2022-09-25T13:50:03;3.27;;;2.37;;
7831;SDS011;3961;42.058;25.586;2022-09-25T13:55:15;2.20;;;1.93;;
7831;SDS011;3961;42.058;25.586;2022-09-25T14:00:24;3.20;;;1.93;;
7831;SDS011;3961;42.058;25.586;2022-09-25T14:03:02;2.23;;;2.03;;
7831;SDS011;3961;42.058;25.586;2022-09-25T14:05:29;3.40;;;2.57;;
7831;SDS011;3961;42.058;25.586;2022-09-25T14:08:10;3.13;;;2.23;;
7831;SDS011;3961;42.058;25.586;2022-09-25T14:10:45;2.57;;;2.07;;
7831;SDS011;3961;42.058;25.586;2022-09-25T14:13:13;4.77;;;2.13;;
7831;SDS011;3961;42.058;25.586;2022-09-25T14:15:42;3.63;;;2.00;;
7831;SDS011;3961;42.058;25.586;2022-09-25T14:18:19;2.50;;;2.10;;
7831;SDS011;3961;42.058;25.586;2022-09-25T14:20:55;2.90;;;2.17;;
7831;SDS011;3961;42.058;25.586;2022-09-25T14:23:24;4.20;;;2.17;;
7831;SDS011;3961;42.058;25.586;2022-09-25T14:26:05;5.20;;;2.17;;
7831;SDS011;3961;42.058;25.586;2022-09-25T14:28:46;2.23;;;2.03;;
7831;SDS011;3961;42.058;25.586;2022-09-25T14:33:43;3.07;;;1.80;;
7831;SDS011;3961;42.058;25.586;2022-09-25T14:39:04;3.70;;;2.30;;
7831;SDS011;3961;42.058;25.586;2022-09-25T14:47:31;2.80;;;2.10;;
7831;SDS011;3961;42.058;25.586;2022-09-25T14:50:00;2.73;;;2.10;;
7831;SDS011;3961;42.058;25.586;2022-09-25T14:52:27;3.63;;;2.20;;
7831;SDS011;3961;42.058;25.586;2022-09-25T14:54:57;2.23;;;1.90;;
7831;SDS011;3961;42.058;25.586;2022-09-25T14:57:27;9.07;;;2.77;;
7831;SDS011;3961;42.058;25.586;2022-09-25T14:59:59;2.47;;;2.10;;
7831;SDS011;3961;42.058;25.586;2022-09-25T15:02:29;3.17;;;2.17;;
7831;SDS011;3961;42.058;25.586;2022-09-25T15:04:58;7.13;;;2.80;;
7831;SDS011;3961;42.058;25.586;2022-09-25T15:07:41;3.37;;;2.20;;
7831;SDS011;3961;42.058;25.586;2022-09-25T15:12:48;2.87;;;2.57;;
7831;SDS011;3961;42.058;25.586;2022-09-25T15:15:14;6.63;;;2.20;;
7831;SDS011;3961;42.058;25.586;2022-09-25T15:17:48;4.90;;;2.30;;
7831;SDS011;3961;42.058;25.586;2022-09-25T15:20:18;7.70;;;2.40;;
7831;SDS011;3961;42.058;25.586;2022-09-25T15:22:57;3.03;;;2.30;;
7831;SDS011;3961;42.058;25.586;2022-09-25T15:25:32;4.80;;;2.60;;
7831;SDS011;3961;42.058;25.586;2022-09-25T15:28:03;4.23;;;2.50;;
7831;SDS011;3961;42.058;25.586;2022-09-25T15:30:30;2.63;;;2.03;;
7831;SDS011;3961;42.058;25.586;2022-09-25T15:33:00;2.10;;;1.90;;
7831;SDS011;3961;42.058;25.586;2022-09-25T15:35:26;6.53;;;2.60;;
7831;SDS011;3961;42.058;25.586;2022-09-25T15:38:09;4.90;;;2.93;;
7831;SDS011;3961;42.058;25.586;2022-09-25T15:40:36;5.43;;;3.27;;
7831;SDS011;3961;42.058;25.586;2022-09-25T15:43:02;3.23;;;2.53;;
7831;SDS011;3961;42.058;25.586;2022-09-25T15:50:42;4.97;;;3.10;;
7831;SDS011;3961;42.058;25.586;2022-09-25T15:53:15;3.43;;;2.30;;
7831;SDS011;3961;42.058;25.586;2022-09-25T15:55:44;4.87;;;2.20;;
7831;SDS011;3961;42.058;25.586;2022-09-25T15:58:11;3.27;;;2.50;;
7831;SDS011;3961;42.058;25.586;2022-09-25T16:00:52;4.03;;;2.40;;
7831;SDS011;3961;42.058;25.586;2022-09-25T16:03:41;4.30;;;2.20;;
7831;SDS011;3961;42.058;25.586;2022-09-25T16:06:34;5.40;;;2.43;;
7831;SDS011;3961;42.058;25.586;2022-09-25T16:14:47;4.60;;;2.60;;
7831;SDS011;3961;42.058;25.586;2022-09-25T16:17:36;3.87;;;2.27;;
7831;SDS011;3961;42.058;25.586;2022-09-25T16:20:05;5.10;;;2.27;;
7831;SDS011;3961;42.058;25.586;2022-09-25T16:22:52;3.07;;;2.33;;
7831;SDS011;3961;42.058;25.586;2022-09-25T16:25:34;3.67;;;2.70;;
7831;SDS011;3961;42.058;25.586;2022-09-25T16:30:32;3.50;;;2.40;;
7831;SDS011;3961;42.058;25.586;2022-09-25T16:33:07;3.90;;;2.43;;
7831;SDS011;3961;42.058;25.586;2022-09-25T16:35:46;4.63;;;2.53;;
7831;SDS011;3961;42.058;25.586;2022-09-25T16:38:25;4.53;;;2.83;;
7831;SDS011;3961;42.058;25.586;2022-09-25T16:41:35;5.87;;;3.20;;
7831;SDS011;3961;42.058;25.586;2022-09-25T16:43:37;5.13;;;2.50;;
7831;SDS011;3961;42.058;25.586;2022-09-25T16:46:13;5.13;;;2.67;;
7831;SDS011;3961;42.058;25.586;2022-09-25T16:48:41;4.73;;;2.90;;
7831;SDS011;3961;42.058;25.586;2022-09-25T16:51:21;5.33;;;2.70;;
7831;SDS011;3961;42.058;25.586;2022-09-25T16:53:51;3.20;;;2.50;;
7831;SDS011;3961;42.058;25.586;2022-09-25T16:56:20;3.80;;;3.03;;
7831;SDS011;3961;42.058;25.586;2022-09-25T16:58:51;3.30;;;3.00;;
7831;SDS011;3961;42.058;25.586;2022-09-25T17:01:18;5.00;;;2.83;;
7831;SDS011;3961;42.058;25.586;2022-09-25T17:03:46;4.57;;;3.17;;
7831;SDS011;3961;42.058;25.586;2022-09-25T17:06:18;8.50;;;3.43;;
7831;SDS011;3961;42.058;25.586;2022-09-25T17:08:45;7.27;;;3.37;;
7831;SDS011;3961;42.058;25.586;2022-09-25T17:11:12;6.73;;;3.20;;
7831;SDS011;3961;42.058;25.586;2022-09-25T17:13:39;4.00;;;3.20;;
7831;SDS011;3961;42.058;25.586;2022-09-25T17:16:07;5.57;;;3.20;;
7831;SDS011;3961;42.058;25.586;2022-09-25T17:18:33;3.53;;;3.23;;
7831;SDS011;3961;42.058;25.586;2022-09-25T17:20:59;5.53;;;3.60;;
7831;SDS011;3961;42.058;25.586;2022-09-25T17:23:27;4.33;;;3.30;;
7831;SDS011;3961;42.058;25.586;2022-09-25T17:25:54;4.50;;;3.60;;
7831;SDS011;3961;42.058;25.586;2022-09-25T17:28:26;5.27;;;3.00;;
7831;SDS011;3961;42.058;25.586;2022-09-25T17:30:51;4.50;;;3.30;;
7831;SDS011;3961;42.058;25.586;2022-09-25T17:33:18;5.63;;;3.50;;
7831;SDS011;3961;42.058;25.586;2022-09-25T17:38:20;4.30;;;3.40;;
7831;SDS011;3961;42.058;25.586;2022-09-25T17:40:46;3.10;;;2.80;;
7831;SDS011;3961;42.058;25.586;2022-09-25T17:43:16;5.90;;;2.90;;
7831;SDS011;3961;42.058;25.586;2022-09-25T17:45:47;3.97;;;2.87;;
7831;SDS011;3961;42.058;25.586;2022-09-25T17:48:15;4.37;;;2.80;;
7831;SDS011;3961;42.058;25.586;2022-09-25T17:50:47;5.43;;;2.80;;
7831;SDS011;3961;42.058;25.586;2022-09-25T17:53:18;5.70;;;2.93;;
7831;SDS011;3961;42.058;25.586;2022-09-25T17:55:46;4.80;;;2.83;;
7831;SDS011;3961;42.058;25.586;2022-09-25T17:58:12;4.67;;;3.07;;
7831;SDS011;3961;42.058;25.586;2022-09-25T18:00:39;3.20;;;2.90;;
7831;SDS011;3961;42.058;25.586;2022-09-25T18:03:05;5.23;;;2.80;;
7831;SDS011;3961;42.058;25.586;2022-09-25T18:05:30;3.20;;;2.77;;
7831;SDS011;3961;42.058;25.586;2022-09-25T18:07:56;4.53;;;2.90;;